sensor_id;sensor_type;location;lat;lon;timestamp;P1;durP1;ratioP1;P2;durP2;ratioP2
43248;SDS011;29216;51.248;6.808;2024-02-21T00:02:10;18.15;;;8.50;;
43248;SDS011;29216;51.248;6.808;2024-02-21T00:04:36;23.45;;;9.48;;
43248;SDS011;29216;51.248;6.808;2024-02-21T00:07:03;22.42;;;8.68;;
43248;SDS011;29216;51.248;6.808;2024-02-21T00:09:29;28.55;;;10.15;;
43248;SDS011;29216;51.248;6.808;2024-02-21T00:11:55;20.92;;;9.00;;
43248;SDS011;29216;51.248;6.808;2024-02-21T00:14:22;19.73;;;8.85;;
43248;SDS011;29216;51.248;6.808;2024-02-21T00:16:48;23.20;;;8.82;;
43248;SDS011;29216;51.248;6.808;2024-02-21T00:19:14;16.33;;;9.05;;
43248;SDS011;29216;51.248;6.808;2024-02-21T00:21:40;20.70;;;8.70;;
43248;SDS011;29216;51.248;6.808;2024-02-21T00:24:06;25.08;;;9.40;;
43248;SDS011;29216;51.248;6.808;2024-02-21T00:26:32;25.90;;;9.80;;
43248;SDS011;29216;51.248;6.808;2024-02-21T00:28:58;24.73;;;9.18;;
43248;SDS011;29216;51.248;6.808;2024-02-21T00:31:24;21.40;;;9.43;;
43248;SDS011;29216;51.248;6.808;2024-02-21T00:33:50;20.08;;;8.88;;
43248;SDS011;29216;51.248;6.808;2024-02-21T00:36:16;25.20;;;8.77;;
43248;SDS011;29216;51.248;6.808;2024-02-21T00:38:42;20.33;;;8.77;;
43248;SDS011;29216;51.248;6.808;2024-02-21T00:41:08;22.98;;;10.18;;
43248;SDS011;29216;51.248;6.808;2024-02-21T00:43:34;20.23;;;9.10;;
43248;SDS011;29216;51.248;6.808;2024-02-21T00:46:00;20.15;;;8.55;;
43248;SDS011;29216;51.248;6.808;2024-02-21T00:48:26;26.83;;;9.50;;
43248;SDS011;29216;51.248;6.808;2024-02-21T00:50:52;20.75;;;9.63;;
43248;SDS011;29216;51.248;6.808;2024-02-21T00:53:17;25.70;;;9.23;;
43248;SDS011;29216;51.248;6.808;2024-02-21T00:55:43;23.25;;;9.25;;
43248;SDS011;29216;51.248;6.808;2024-02-21T00:58:09;19.33;;;8.88;;
43248;SDS011;29216;51.248;6.808;2024-02-21T01:00:35;21.25;;;8.82;;
43248;SDS011;29216;51.248;6.808;2024-02-21T01:03:01;20.55;;;9.13;;
43248;SDS011;29216;51.248;6.808;2024-02-21T01:05:28;22.75;;;7.85;;
43248;SDS011;29216;51.248;6.808;2024-02-21T01:07:54;25.83;;;9.60;;
43248;SDS011;29216;51.248;6.808;2024-02-21T01:10:20;19.63;;;9.20;;
43248;SDS011;29216;51.248;6.808;2024-02-21T01:12:46;23.75;;;8.63;;
43248;SDS011;29216;51.248;6.808;2024-02-21T01:15:12;24.67;;;9.88;;
43248;SDS011;29216;51.248;6.808;2024-02-21T01:17:38;17.70;;;8.50;;
43248;SDS011;29216;51.248;6.808;2024-02-21T01:20:05;23.00;;;9.05;;
43248;SDS011;29216;51.248;6.808;2024-02-21T01:22:32;25.40;;;9.23;;
43248;SDS011;29216;51.248;6.808;2024-02-21T01:24:58;24.90;;;8.63;;
43248;SDS011;29216;51.248;6.808;2024-02-21T01:27:24;26.90;;;9.35;;
43248;SDS011;29216;51.248;6.808;2024-02-21T01:29:50;20.90;;;9.15;;
43248;SDS011;29216;51.248;6.808;2024-02-21T01:32:16;21.75;;;9.23;;
43248;SDS011;29216;51.248;6.808;2024-02-21T01:34:42;23.42;;;10.02;;
43248;SDS011;29216;51.248;6.808;2024-02-21T01:37:08;22.85;;;9.90;;
43248;SDS011;29216;51.248;6.808;2024-02-21T01:39:34;23.88;;;9.70;;
43248;SDS011;29216;51.248;6.808;2024-02-21T01:42:00;27.98;;;10.95;;
43248;SDS011;29216;51.248;6.808;2024-02-21T01:44:26;19.73;;;8.77;;
43248;SDS011;29216;51.248;6.808;2024-02-21T01:46:52;19.75;;;8.98;;
43248;SDS011;29216;51.248;6.808;2024-02-21T01:49:19;24.42;;;9.23;;
43248;SDS011;29216;51.248;6.808;2024-02-21T01:51:46;27.25;;;8.27;;
43248;SDS011;29216;51.248;6.808;2024-02-21T01:54:13;24.13;;;9.15;;
43248;SDS011;29216;51.248;6.808;2024-02-21T01:56:39;21.05;;;9.20;;
43248;SDS011;29216;51.248;6.808;2024-02-21T01:59:05;20.80;;;8.25;;
43248;SDS011;29216;51.248;6.808;2024-02-21T02:01:31;15.85;;;8.48;;
43248;SDS011;29216;51.248;6.808;2024-02-21T02:03:57;23.38;;;8.88;;
43248;SDS011;29216;51.248;6.808;2024-02-21T02:06:25;27.05;;;9.00;;
43248;SDS011;29216;51.248;6.808;2024-02-21T02:08:51;20.77;;;8.80;;
43248;SDS011;29216;51.248;6.808;2024-02-21T02:11:17;22.65;;;8.43;;
43248;SDS011;29216;51.248;6.808;2024-02-21T02:13:43;18.70;;;8.35;;
43248;SDS011;29216;51.248;6.808;2024-02-21T02:16:09;21.63;;;8.15;;
43248;SDS011;29216;51.248;6.808;2024-02-21T02:18:36;18.83;;;8.95;;
43248;SDS011;29216;51.248;6.808;2024-02-21T02:21:03;22.77;;;8.25;;
43248;SDS011;29216;51.248;6.808;2024-02-21T02:23:30;24.85;;;8.32;;
43248;SDS011;29216;51.248;6.808;2024-02-21T02:25:59;20.20;;;7.93;;
43248;SDS011;29216;51.248;6.808;2024-02-21T02:28:26;18.88;;;7.90;;
43248;SDS011;29216;51.248;6.808;2024-02-21T02:30:52;23.35;;;8.07;;
43248;SDS011;29216;51.248;6.808;2024-02-21T02:33:18;16.48;;;7.45;;
43248;SDS011;29216;51.248;6.808;2024-02-21T02:35:44;18.58;;;7.78;;
43248;SDS011;29216;51.248;6.808;2024-02-21T02:38:10;18.10;;;6.80;;
43248;SDS011;29216;51.248;6.808;2024-02-21T02:40:38;22.05;;;7.90;;
43248;SDS011;29216;51.248;6.808;2024-02-21T02:43:05;27.33;;;9.85;;
43248;SDS011;29216;51.248;6.808;2024-02-21T02:45:31;22.52;;;7.25;;
43248;SDS011;29216;51.248;6.808;2024-02-21T02:47:58;22.10;;;8.70;;
43248;SDS011;29216;51.248;6.808;2024-02-21T02:50:24;20.08;;;8.68;;
43248;SDS011;29216;51.248;6.808;2024-02-21T02:52:51;18.42;;;7.60;;
43248;SDS011;29216;51.248;6.808;2024-02-21T02:55:17;17.10;;;7.60;;
43248;SDS011;29216;51.248;6.808;2024-02-21T02:57:43;20.15;;;7.60;;
43248;SDS011;29216;51.248;6.808;2024-02-21T03:00:13;21.77;;;7.93;;
43248;SDS011;29216;51.248;6.808;2024-02-21T03:02:39;18.45;;;7.68;;
43248;SDS011;29216;51.248;6.808;2024-02-21T03:05:18;14.43;;;7.25;;
43248;SDS011;29216;51.248;6.808;2024-02-21T03:07:45;22.13;;;9.18;;
43248;SDS011;29216;51.248;6.808;2024-02-21T03:10:11;18.55;;;7.53;;
43248;SDS011;29216;51.248;6.808;2024-02-21T03:12:37;21.55;;;7.75;;
43248;SDS011;29216;51.248;6.808;2024-02-21T03:15:03;20.52;;;7.38;;
43248;SDS011;29216;51.248;6.808;2024-02-21T03:17:30;19.67;;;7.43;;
43248;SDS011;29216;51.248;6.808;2024-02-21T03:19:56;25.30;;;7.88;;
43248;SDS011;29216;51.248;6.808;2024-02-21T03:22:22;16.13;;;7.75;;
43248;SDS011;29216;51.248;6.808;2024-02-21T03:24:49;14.45;;;7.32;;
43248;SDS011;29216;51.248;6.808;2024-02-21T03:27:15;14.90;;;6.50;;
43248;SDS011;29216;51.248;6.808;2024-02-21T03:29:41;20.33;;;8.15;;
43248;SDS011;29216;51.248;6.808;2024-02-21T03:32:07;17.67;;;7.28;;
43248;SDS011;29216;51.248;6.808;2024-02-21T03:34:33;19.20;;;7.65;;
43248;SDS011;29216;51.248;6.808;2024-02-21T03:36:59;20.38;;;7.55;;
43248;SDS011;29216;51.248;6.808;2024-02-21T03:39:25;15.43;;;7.35;;
43248;SDS011;29216;51.248;6.808;2024-02-21T03:41:51;20.30;;;7.45;;
43248;SDS011;29216;51.248;6.808;2024-02-21T03:44:17;16.42;;;6.97;;
43248;SDS011;29216;51.248;6.808;2024-02-21T03:46:43;19.83;;;7.25;;
43248;SDS011;29216;51.248;6.808;2024-02-21T03:49:09;18.63;;;7.03;;
43248;SDS011;29216;51.248;6.808;2024-02-21T03:51:36;18.35;;;7.07;;
43248;SDS011;29216;51.248;6.808;2024-02-21T03:54:02;13.82;;;7.15;;
43248;SDS011;29216;51.248;6.808;2024-02-21T03:56:28;19.42;;;6.80;;
43248;SDS011;29216;51.248;6.808;2024-02-21T03:58:54;15.15;;;7.43;;
43248;SDS011;29216;51.248;6.808;2024-02-21T04:01:20;17.92;;;7.13;;
43248;SDS011;29216;51.248;6.808;2024-02-21T04:03:46;15.60;;;7.00;;
43248;SDS011;29216;51.248;6.808;2024-02-21T04:06:12;16.60;;;7.22;;
43248;SDS011;29216;51.248;6.808;2024-02-21T04:08:38;15.85;;;6.53;;
43248;SDS011;29216;51.248;6.808;2024-02-21T04:11:04;20.02;;;6.75;;
43248;SDS011;29216;51.248;6.808;2024-02-21T04:13:30;17.38;;;7.47;;
43248;SDS011;29216;51.248;6.808;2024-02-21T04:15:56;14.57;;;6.60;;
43248;SDS011;29216;51.248;6.808;2024-02-21T04:18:22;13.63;;;7.22;;
43248;SDS011;29216;51.248;6.808;2024-02-21T04:20:50;15.40;;;6.22;;
43248;SDS011;29216;51.248;6.808;2024-02-21T04:23:16;13.82;;;5.93;;
43248;SDS011;29216;51.248;6.808;2024-02-21T04:25:42;16.67;;;6.10;;
43248;SDS011;29216;51.248;6.808;2024-02-21T04:28:08;21.25;;;7.28;;
43248;SDS011;29216;51.248;6.808;2024-02-21T04:30:34;8.65;;;5.93;;
43248;SDS011;29216;51.248;6.808;2024-02-21T04:33:00;23.02;;;7.30;;
43248;SDS011;29216;51.248;6.808;2024-02-21T04:35:26;12.93;;;6.82;;
43248;SDS011;29216;51.248;6.808;2024-02-21T04:37:51;15.38;;;6.57;;
43248;SDS011;29216;51.248;6.808;2024-02-21T04:40:17;12.15;;;5.47;;
43248;SDS011;29216;51.248;6.808;2024-02-21T04:42:44;11.60;;;5.55;;
43248;SDS011;29216;51.248;6.808;2024-02-21T04:45:10;15.45;;;6.95;;
43248;SDS011;29216;51.248;6.808;2024-02-21T04:47:36;15.07;;;6.75;;
43248;SDS011;29216;51.248;6.808;2024-02-21T04:50:02;13.68;;;6.05;;
43248;SDS011;29216;51.248;6.808;2024-02-21T04:52:28;14.48;;;5.93;;
43248;SDS011;29216;51.248;6.808;2024-02-21T04:54:54;11.68;;;5.72;;
43248;SDS011;29216;51.248;6.808;2024-02-21T04:57:21;15.80;;;6.45;;
43248;SDS011;29216;51.248;6.808;2024-02-21T04:59:47;17.55;;;7.10;;
43248;SDS011;29216;51.248;6.808;2024-02-21T05:02:13;15.73;;;6.72;;
43248;SDS011;29216;51.248;6.808;2024-02-21T05:04:39;14.95;;;6.13;;
43248;SDS011;29216;51.248;6.808;2024-02-21T05:07:06;10.88;;;5.85;;
43248;SDS011;29216;51.248;6.808;2024-02-21T05:09:32;13.80;;;5.88;;
43248;SDS011;29216;51.248;6.808;2024-02-21T05:11:58;19.60;;;6.47;;
43248;SDS011;29216;51.248;6.808;2024-02-21T05:14:25;14.30;;;6.20;;
43248;SDS011;29216;51.248;6.808;2024-02-21T05:16:51;17.70;;;6.95;;
43248;SDS011;29216;51.248;6.808;2024-02-21T05:19:17;15.80;;;6.10;;
43248;SDS011;29216;51.248;6.808;2024-02-21T05:21:43;15.75;;;5.82;;
43248;SDS011;29216;51.248;6.808;2024-02-21T05:24:09;12.02;;;6.32;;
43248;SDS011;29216;51.248;6.808;2024-02-21T05:26:35;16.42;;;5.40;;
43248;SDS011;29216;51.248;6.808;2024-02-21T05:29:01;16.50;;;6.10;;
43248;SDS011;29216;51.248;6.808;2024-02-21T05:31:42;14.45;;;5.97;;
43248;SDS011;29216;51.248;6.808;2024-02-21T05:34:08;13.77;;;6.07;;
43248;SDS011;29216;51.248;6.808;2024-02-21T05:36:34;11.48;;;5.97;;
43248;SDS011;29216;51.248;6.808;2024-02-21T05:39:00;17.55;;;5.35;;
43248;SDS011;29216;51.248;6.808;2024-02-21T05:41:26;17.45;;;6.25;;
43248;SDS011;29216;51.248;6.808;2024-02-21T05:43:52;13.50;;;5.95;;
43248;SDS011;29216;51.248;6.808;2024-02-21T05:46:21;15.05;;;5.78;;
43248;SDS011;29216;51.248;6.808;2024-02-21T05:48:47;12.63;;;5.43;;
43248;SDS011;29216;51.248;6.808;2024-02-21T05:51:13;13.48;;;5.80;;
43248;SDS011;29216;51.248;6.808;2024-02-21T05:53:40;11.32;;;5.50;;
43248;SDS011;29216;51.248;6.808;2024-02-21T05:56:14;14.13;;;5.38;;
43248;SDS011;29216;51.248;6.808;2024-02-21T05:58:43;11.57;;;5.28;;
43248;SDS011;29216;51.248;6.808;2024-02-21T06:01:09;16.92;;;5.22;;
43248;SDS011;29216;51.248;6.808;2024-02-21T06:03:35;10.88;;;5.38;;
43248;SDS011;29216;51.248;6.808;2024-02-21T06:06:01;10.20;;;5.75;;
43248;SDS011;29216;51.248;6.808;2024-02-21T06:08:27;16.88;;;5.95;;
43248;SDS011;29216;51.248;6.808;2024-02-21T06:10:53;13.43;;;6.05;;
43248;SDS011;29216;51.248;6.808;2024-02-21T06:13:20;12.63;;;5.88;;
43248;SDS011;29216;51.248;6.808;2024-02-21T06:15:49;12.52;;;5.32;;
43248;SDS011;29216;51.248;6.808;2024-02-21T06:18:15;13.68;;;6.30;;
43248;SDS011;29216;51.248;6.808;2024-02-21T06:20:41;14.93;;;6.40;;
43248;SDS011;29216;51.248;6.808;2024-02-21T06:23:08;16.67;;;5.88;;
43248;SDS011;29216;51.248;6.808;2024-02-21T06:25:34;11.82;;;6.35;;
43248;SDS011;29216;51.248;6.808;2024-02-21T06:28:00;13.82;;;7.22;;
43248;SDS011;29216;51.248;6.808;2024-02-21T06:30:26;14.50;;;5.78;;
43248;SDS011;29216;51.248;6.808;2024-02-21T06:32:52;17.23;;;5.55;;
43248;SDS011;29216;51.248;6.808;2024-02-21T06:35:21;11.95;;;5.65;;
43248;SDS011;29216;51.248;6.808;2024-02-21T06:37:46;11.13;;;5.28;;
43248;SDS011;29216;51.248;6.808;2024-02-21T06:40:16;12.25;;;5.80;;
43248;SDS011;29216;51.248;6.808;2024-02-21T06:42:42;13.30;;;5.47;;
43248;SDS011;29216;51.248;6.808;2024-02-21T06:45:08;11.30;;;5.43;;
43248;SDS011;29216;51.248;6.808;2024-02-21T06:47:34;11.18;;;4.80;;
43248;SDS011;29216;51.248;6.808;2024-02-21T06:50:00;13.05;;;5.55;;
43248;SDS011;29216;51.248;6.808;2024-02-21T06:52:26;13.52;;;5.25;;
43248;SDS011;29216;51.248;6.808;2024-02-21T06:54:52;12.77;;;5.00;;
43248;SDS011;29216;51.248;6.808;2024-02-21T06:57:18;10.40;;;4.20;;
43248;SDS011;29216;51.248;6.808;2024-02-21T06:59:44;12.93;;;4.75;;
43248;SDS011;29216;51.248;6.808;2024-02-21T07:02:10;13.43;;;5.55;;
43248;SDS011;29216;51.248;6.808;2024-02-21T07:04:36;12.85;;;5.05;;
43248;SDS011;29216;51.248;6.808;2024-02-21T07:07:02;16.60;;;5.18;;
43248;SDS011;29216;51.248;6.808;2024-02-21T07:09:29;11.25;;;4.85;;
43248;SDS011;29216;51.248;6.808;2024-02-21T07:11:57;13.98;;;5.32;;
43248;SDS011;29216;51.248;6.808;2024-02-21T07:14:23;13.23;;;6.28;;
43248;SDS011;29216;51.248;6.808;2024-02-21T07:16:49;11.38;;;5.28;;
43248;SDS011;29216;51.248;6.808;2024-02-21T07:19:15;11.32;;;5.20;;
43248;SDS011;29216;51.248;6.808;2024-02-21T07:21:41;11.77;;;5.82;;
43248;SDS011;29216;51.248;6.808;2024-02-21T07:24:07;13.07;;;5.10;;
43248;SDS011;29216;51.248;6.808;2024-02-21T07:26:33;10.13;;;4.50;;
43248;SDS011;29216;51.248;6.808;2024-02-21T07:28:59;9.73;;;4.65;;
43248;SDS011;29216;51.248;6.808;2024-02-21T07:31:25;11.23;;;4.35;;
43248;SDS011;29216;51.248;6.808;2024-02-21T07:33:51;12.05;;;4.50;;
43248;SDS011;29216;51.248;6.808;2024-02-21T07:36:25;13.02;;;4.72;;
43248;SDS011;29216;51.248;6.808;2024-02-21T07:38:51;13.15;;;4.65;;
43248;SDS011;29216;51.248;6.808;2024-02-21T07:41:17;11.48;;;5.90;;
43248;SDS011;29216;51.248;6.808;2024-02-21T07:43:43;8.80;;;4.63;;
43248;SDS011;29216;51.248;6.808;2024-02-21T07:46:09;11.30;;;4.13;;
43248;SDS011;29216;51.248;6.808;2024-02-21T07:48:35;10.20;;;4.20;;
43248;SDS011;29216;51.248;6.808;2024-02-21T07:51:01;10.30;;;4.22;;
43248;SDS011;29216;51.248;6.808;2024-02-21T07:53:27;10.07;;;4.25;;
43248;SDS011;29216;51.248;6.808;2024-02-21T07:55:53;10.05;;;4.20;;
43248;SDS011;29216;51.248;6.808;2024-02-21T07:58:19;10.07;;;4.07;;
43248;SDS011;29216;51.248;6.808;2024-02-21T08:00:45;10.40;;;3.80;;
43248;SDS011;29216;51.248;6.808;2024-02-21T08:03:11;11.90;;;4.45;;
43248;SDS011;29216;51.248;6.808;2024-02-21T08:05:38;11.25;;;4.47;;
43248;SDS011;29216;51.248;6.808;2024-02-21T08:08:04;10.88;;;4.75;;
43248;SDS011;29216;51.248;6.808;2024-02-21T08:10:30;10.77;;;4.30;;
43248;SDS011;29216;51.248;6.808;2024-02-21T08:12:56;11.25;;;4.07;;
43248;SDS011;29216;51.248;6.808;2024-02-21T08:15:22;12.30;;;4.03;;
43248;SDS011;29216;51.248;6.808;2024-02-21T08:17:53;13.27;;;4.43;;
43248;SDS011;29216;51.248;6.808;2024-02-21T08:20:23;12.38;;;4.85;;
43248;SDS011;29216;51.248;6.808;2024-02-21T08:22:50;6.20;;;3.72;;
43248;SDS011;29216;51.248;6.808;2024-02-21T08:25:15;11.80;;;4.20;;
43248;SDS011;29216;51.248;6.808;2024-02-21T08:27:42;13.90;;;4.30;;
43248;SDS011;29216;51.248;6.808;2024-02-21T08:30:08;14.07;;;4.80;;
43248;SDS011;29216;51.248;6.808;2024-02-21T08:32:34;14.43;;;4.93;;
43248;SDS011;29216;51.248;6.808;2024-02-21T08:35:01;12.75;;;4.55;;
43248;SDS011;29216;51.248;6.808;2024-02-21T08:37:28;13.40;;;4.30;;
43248;SDS011;29216;51.248;6.808;2024-02-21T08:39:54;12.18;;;5.25;;
43248;SDS011;29216;51.248;6.808;2024-02-21T08:42:20;12.35;;;5.13;;
43248;SDS011;29216;51.248;6.808;2024-02-21T08:44:46;11.65;;;4.40;;
43248;SDS011;29216;51.248;6.808;2024-02-21T08:47:12;10.43;;;5.50;;
43248;SDS011;29216;51.248;6.808;2024-02-21T08:49:38;14.43;;;4.72;;
43248;SDS011;29216;51.248;6.808;2024-02-21T08:52:04;18.20;;;5.15;;
43248;SDS011;29216;51.248;6.808;2024-02-21T08:54:31;9.60;;;4.35;;
43248;SDS011;29216;51.248;6.808;2024-02-21T08:57:00;17.63;;;4.72;;
43248;SDS011;29216;51.248;6.808;2024-02-21T08:59:26;14.25;;;4.68;;
43248;SDS011;29216;51.248;6.808;2024-02-21T09:01:52;9.85;;;4.80;;
43248;SDS011;29216;51.248;6.808;2024-02-21T09:04:18;15.80;;;4.28;;
43248;SDS011;29216;51.248;6.808;2024-02-21T09:06:44;16.65;;;5.35;;
43248;SDS011;29216;51.248;6.808;2024-02-21T09:09:11;13.50;;;5.45;;
43248;SDS011;29216;51.248;6.808;2024-02-21T09:11:37;14.52;;;5.00;;
43248;SDS011;29216;51.248;6.808;2024-02-21T09:14:05;11.77;;;4.95;;
43248;SDS011;29216;51.248;6.808;2024-02-21T09:16:34;11.18;;;4.47;;
43248;SDS011;29216;51.248;6.808;2024-02-21T09:19:00;9.82;;;4.25;;
43248;SDS011;29216;51.248;6.808;2024-02-21T09:21:26;13.10;;;4.35;;
43248;SDS011;29216;51.248;6.808;2024-02-21T09:23:53;11.95;;;4.22;;
43248;SDS011;29216;51.248;6.808;2024-02-21T09:26:19;17.88;;;5.60;;
43248;SDS011;29216;51.248;6.808;2024-02-21T09:28:45;12.75;;;5.53;;
43248;SDS011;29216;51.248;6.808;2024-02-21T09:31:11;13.18;;;6.20;;
43248;SDS011;29216;51.248;6.808;2024-02-21T09:33:37;15.57;;;5.60;;
43248;SDS011;29216;51.248;6.808;2024-02-21T09:36:04;15.05;;;6.00;;
43248;SDS011;29216;51.248;6.808;2024-02-21T09:38:33;14.15;;;5.82;;
43248;SDS011;29216;51.248;6.808;2024-02-21T09:41:00;10.77;;;5.78;;
43248;SDS011;29216;51.248;6.808;2024-02-21T09:43:26;11.25;;;6.00;;
43248;SDS011;29216;51.248;6.808;2024-02-21T09:45:52;14.82;;;5.30;;
43248;SDS011;29216;51.248;6.808;2024-02-21T09:50:52;10.35;;;4.15;;
43248;SDS011;29216;51.248;6.808;2024-02-21T09:53:19;12.18;;;4.30;;
43248;SDS011;29216;51.248;6.808;2024-02-21T09:55:45;13.73;;;4.25;;
43248;SDS011;29216;51.248;6.808;2024-02-21T09:58:12;10.50;;;3.95;;
43248;SDS011;29216;51.248;6.808;2024-02-21T10:00:38;9.35;;;4.32;;
43248;SDS011;29216;51.248;6.808;2024-02-21T10:03:04;8.45;;;4.30;;
43248;SDS011;29216;51.248;6.808;2024-02-21T10:05:33;14.15;;;4.32;;
43248;SDS011;29216;51.248;6.808;2024-02-21T10:08:00;7.05;;;4.03;;
43248;SDS011;29216;51.248;6.808;2024-02-21T10:10:26;11.43;;;4.45;;
43248;SDS011;29216;51.248;6.808;2024-02-21T10:12:54;11.60;;;3.80;;
43248;SDS011;29216;51.248;6.808;2024-02-21T10:15:21;9.23;;;3.90;;
43248;SDS011;29216;51.248;6.808;2024-02-21T10:17:57;9.05;;;3.15;;
43248;SDS011;29216;51.248;6.808;2024-02-21T10:20:24;8.32;;;3.38;;
43248;SDS011;29216;51.248;6.808;2024-02-21T10:22:59;8.48;;;3.83;;
43248;SDS011;29216;51.248;6.808;2024-02-21T10:25:26;8.48;;;3.20;;
43248;SDS011;29216;51.248;6.808;2024-02-21T10:27:52;7.85;;;3.50;;
43248;SDS011;29216;51.248;6.808;2024-02-21T10:30:19;5.65;;;3.25;;
43248;SDS011;29216;51.248;6.808;2024-02-21T10:32:51;9.00;;;3.58;;
43248;SDS011;29216;51.248;6.808;2024-02-21T10:35:25;9.95;;;3.38;;
43248;SDS011;29216;51.248;6.808;2024-02-21T10:37:52;6.07;;;3.42;;
43248;SDS011;29216;51.248;6.808;2024-02-21T10:40:21;9.93;;;3.95;;
43248;SDS011;29216;51.248;6.808;2024-02-21T10:42:47;7.10;;;2.78;;
43248;SDS011;29216;51.248;6.808;2024-02-21T10:45:14;7.60;;;3.58;;
43248;SDS011;29216;51.248;6.808;2024-02-21T10:47:40;10.02;;;4.10;;
43248;SDS011;29216;51.248;6.808;2024-02-21T10:50:09;7.82;;;3.55;;
43248;SDS011;29216;51.248;6.808;2024-02-21T10:52:42;6.18;;;3.22;;
43248;SDS011;29216;51.248;6.808;2024-02-21T10:55:16;5.82;;;3.08;;
43248;SDS011;29216;51.248;6.808;2024-02-21T10:57:46;9.57;;;3.30;;
43248;SDS011;29216;51.248;6.808;2024-02-21T11:00:14;9.35;;;3.30;;
43248;SDS011;29216;51.248;6.808;2024-02-21T11:02:40;13.80;;;3.95;;
43248;SDS011;29216;51.248;6.808;2024-02-21T11:05:07;7.93;;;3.20;;
43248;SDS011;29216;51.248;6.808;2024-02-21T11:07:35;7.35;;;3.10;;
43248;SDS011;29216;51.248;6.808;2024-02-21T11:10:01;7.18;;;3.33;;
43248;SDS011;29216;51.248;6.808;2024-02-21T11:12:28;9.18;;;3.10;;
43248;SDS011;29216;51.248;6.808;2024-02-21T11:15:07;6.88;;;3.50;;
43248;SDS011;29216;51.248;6.808;2024-02-21T11:17:33;8.35;;;3.53;;
43248;SDS011;29216;51.248;6.808;2024-02-21T11:20:10;7.32;;;3.10;;
43248;SDS011;29216;51.248;6.808;2024-02-21T11:22:41;9.82;;;3.85;;
43248;SDS011;29216;51.248;6.808;2024-02-21T11:25:07;11.18;;;3.35;;
43248;SDS011;29216;51.248;6.808;2024-02-21T11:27:36;9.50;;;3.67;;
43248;SDS011;29216;51.248;6.808;2024-02-21T11:30:04;9.57;;;3.50;;
43248;SDS011;29216;51.248;6.808;2024-02-21T11:32:30;8.55;;;3.55;;
43248;SDS011;29216;51.248;6.808;2024-02-21T11:34:57;9.10;;;3.78;;
43248;SDS011;29216;51.248;6.808;2024-02-21T11:37:34;12.43;;;3.90;;
43248;SDS011;29216;51.248;6.808;2024-02-21T11:40:02;8.80;;;3.63;;
43248;SDS011;29216;51.248;6.808;2024-02-21T11:42:29;8.18;;;4.03;;
43248;SDS011;29216;51.248;6.808;2024-02-21T11:44:59;10.40;;;3.85;;
43248;SDS011;29216;51.248;6.808;2024-02-21T11:47:25;7.13;;;3.60;;
43248;SDS011;29216;51.248;6.808;2024-02-21T11:49:51;11.95;;;3.80;;
43248;SDS011;29216;51.248;6.808;2024-02-21T11:52:24;13.90;;;4.38;;
43248;SDS011;29216;51.248;6.808;2024-02-21T11:54:53;8.30;;;3.53;;
43248;SDS011;29216;51.248;6.808;2024-02-21T11:57:21;13.50;;;3.70;;
43248;SDS011;29216;51.248;6.808;2024-02-21T11:59:47;12.32;;;4.13;;
43248;SDS011;29216;51.248;6.808;2024-02-21T12:02:14;12.20;;;3.92;;
43248;SDS011;29216;51.248;6.808;2024-02-21T12:04:41;8.30;;;3.20;;
43248;SDS011;29216;51.248;6.808;2024-02-21T12:07:07;6.63;;;3.40;;
43248;SDS011;29216;51.248;6.808;2024-02-21T12:09:34;9.93;;;3.67;;
43248;SDS011;29216;51.248;6.808;2024-02-21T12:12:04;13.40;;;3.47;;
43248;SDS011;29216;51.248;6.808;2024-02-21T12:14:30;10.55;;;2.92;;
43248;SDS011;29216;51.248;6.808;2024-02-21T12:16:56;12.13;;;3.80;;
43248;SDS011;29216;51.248;6.808;2024-02-21T12:19:22;11.77;;;3.83;;
43248;SDS011;29216;51.248;6.808;2024-02-21T12:21:48;8.98;;;3.20;;
43248;SDS011;29216;51.248;6.808;2024-02-21T12:24:25;12.25;;;3.13;;
43248;SDS011;29216;51.248;6.808;2024-02-21T12:26:51;9.43;;;3.30;;
43248;SDS011;29216;51.248;6.808;2024-02-21T12:29:18;10.95;;;3.60;;
43248;SDS011;29216;51.248;6.808;2024-02-21T12:31:44;15.35;;;3.50;;
43248;SDS011;29216;51.248;6.808;2024-02-21T12:34:10;14.35;;;3.58;;
43248;SDS011;29216;51.248;6.808;2024-02-21T12:36:36;11.23;;;3.22;;
43248;SDS011;29216;51.248;6.808;2024-02-21T12:39:07;9.48;;;3.38;;
43248;SDS011;29216;51.248;6.808;2024-02-21T12:41:33;12.73;;;3.25;;
43248;SDS011;29216;51.248;6.808;2024-02-21T12:44:01;9.18;;;3.17;;
43248;SDS011;29216;51.248;6.808;2024-02-21T12:46:28;9.07;;;3.00;;
43248;SDS011;29216;51.248;6.808;2024-02-21T12:48:54;6.22;;;2.95;;
43248;SDS011;29216;51.248;6.808;2024-02-21T12:51:20;7.68;;;3.08;;
43248;SDS011;29216;51.248;6.808;2024-02-21T12:53:49;9.45;;;3.20;;
43248;SDS011;29216;51.248;6.808;2024-02-21T12:56:15;8.25;;;3.15;;
43248;SDS011;29216;51.248;6.808;2024-02-21T12:58:42;6.40;;;2.78;;
43248;SDS011;29216;51.248;6.808;2024-02-21T13:01:08;7.68;;;3.17;;
43248;SDS011;29216;51.248;6.808;2024-02-21T13:03:34;7.95;;;3.00;;
43248;SDS011;29216;51.248;6.808;2024-02-21T13:06:00;8.75;;;3.05;;
43248;SDS011;29216;51.248;6.808;2024-02-21T13:08:26;9.75;;;3.08;;
43248;SDS011;29216;51.248;6.808;2024-02-21T13:10:52;10.30;;;3.15;;
43248;SDS011;29216;51.248;6.808;2024-02-21T13:13:18;7.47;;;3.35;;
43248;SDS011;29216;51.248;6.808;2024-02-21T13:15:44;7.97;;;3.42;;
43248;SDS011;29216;51.248;6.808;2024-02-21T13:18:10;7.72;;;3.20;;
43248;SDS011;29216;51.248;6.808;2024-02-21T13:20:36;10.60;;;3.55;;
43248;SDS011;29216;51.248;6.808;2024-02-21T13:23:03;5.85;;;2.95;;
43248;SDS011;29216;51.248;6.808;2024-02-21T13:25:29;7.97;;;3.38;;
43248;SDS011;29216;51.248;6.808;2024-02-21T13:27:55;7.47;;;3.28;;
43248;SDS011;29216;51.248;6.808;2024-02-21T13:30:21;8.32;;;3.25;;
43248;SDS011;29216;51.248;6.808;2024-02-21T13:32:47;9.85;;;3.00;;
43248;SDS011;29216;51.248;6.808;2024-02-21T13:35:13;5.13;;;2.83;;
43248;SDS011;29216;51.248;6.808;2024-02-21T13:37:43;9.02;;;3.30;;
43248;SDS011;29216;51.248;6.808;2024-02-21T13:40:09;7.25;;;3.65;;
43248;SDS011;29216;51.248;6.808;2024-02-21T13:42:35;7.28;;;3.13;;
43248;SDS011;29216;51.248;6.808;2024-02-21T13:45:02;8.77;;;3.38;;
43248;SDS011;29216;51.248;6.808;2024-02-21T13:47:28;7.65;;;2.80;;
43248;SDS011;29216;51.248;6.808;2024-02-21T13:49:54;8.48;;;3.08;;
43248;SDS011;29216;51.248;6.808;2024-02-21T13:52:20;9.20;;;3.13;;
43248;SDS011;29216;51.248;6.808;2024-02-21T13:54:47;10.85;;;3.05;;
43248;SDS011;29216;51.248;6.808;2024-02-21T13:57:13;5.63;;;3.10;;
43248;SDS011;29216;51.248;6.808;2024-02-21T13:59:39;8.40;;;2.72;;
43248;SDS011;29216;51.248;6.808;2024-02-21T14:02:07;9.57;;;3.22;;
43248;SDS011;29216;51.248;6.808;2024-02-21T14:04:34;9.40;;;3.08;;
43248;SDS011;29216;51.248;6.808;2024-02-21T14:07:00;7.00;;;3.08;;
43248;SDS011;29216;51.248;6.808;2024-02-21T14:09:26;5.22;;;3.00;;
43248;SDS011;29216;51.248;6.808;2024-02-21T14:11:54;11.15;;;3.22;;
43248;SDS011;29216;51.248;6.808;2024-02-21T14:14:20;6.90;;;3.05;;
43248;SDS011;29216;51.248;6.808;2024-02-21T14:16:46;7.07;;;3.00;;
43248;SDS011;29216;51.248;6.808;2024-02-21T14:19:13;7.63;;;3.03;;
43248;SDS011;29216;51.248;6.808;2024-02-21T14:21:39;5.70;;;3.03;;
43248;SDS011;29216;51.248;6.808;2024-02-21T14:24:05;6.57;;;3.22;;
43248;SDS011;29216;51.248;6.808;2024-02-21T14:26:32;7.88;;;3.08;;
43248;SDS011;29216;51.248;6.808;2024-02-21T14:28:58;8.60;;;2.92;;
43248;SDS011;29216;51.248;6.808;2024-02-21T14:31:24;11.75;;;3.58;;
43248;SDS011;29216;51.248;6.808;2024-02-21T14:33:50;10.40;;;3.28;;
43248;SDS011;29216;51.248;6.808;2024-02-21T14:36:16;11.70;;;3.10;;
43248;SDS011;29216;51.248;6.808;2024-02-21T14:38:42;11.45;;;4.13;;